Aérodrome :
LOGIN :

S'inscrire | Disclaimer

   EN    FR    IT 

 










Légende :    VFR   VFR Marginal   IFR   IFR Intensif   IFR Très Intensif
Visi : 
Plafond : 
>= 8 km
>= 3000ft
5 à 8 km
1000 à 3000 ft
1500m à 5 km
500 à 1000 ft
800 à 1500m
200 à 500 ft
< 800m
< 200 ft
Symboles :   Orages  Brouillard  Fortes neiges  Fortes précipitations  Vent > 20 kt
SIGMETs :   Divers  Orages  Givrage  Turbulence  Onde Orograph.  Cendres Volcan.







- Altitude de l'aérodrome : 1674 ft
- Code IATA : BRN


LSZB - Bern Belp

DERNIER METAR :
  • 011720Z 28003KT 9999 -SHRA FEW040 BKN045 06/03 Q1011 REDZ NOSIG

METARs EXPIRÉS :
  • 011650Z 30005KT 260V350 9999 DZ FEW040 BKN050 07/02 Q1011 TEMPO SHRA
  • 011620Z 29007KT 270V330 9999 SCT040 BKN050 07/02 Q1011 TEMPO SHRA
  • 011550Z 30008KT 260V330 9999 OVC050 07/02 Q1011 TEMPO SHRA
  • 011520Z 29009KT 9999 FEW040 BKN050 07/02 Q1011 NOSIG
  • 011450Z 27011KT 9999 FEW050 BKN070 07/02 Q1010 NOSIG

TAF TAF LSZB
Valide du 01 à 15h jusqu'au 02 à 00h UTC


011425Z 0115/0124 28011KT 9999 BKN080
TEMPO 0115/0124 RA
ATIS : +41 22 417 40 76
Pas de NOTAMs connus pour ce terrain.



MET'MAP, la Météo Aéronautique d'un coup d'oeil ! - Copyright ORBIFLY Décembre 2007 - Disclaimer

ORBIFLY MET'MAP TEAM :

Programmation & Développement : Alexandra Zaïnal
Conception & Développement : Baudouin d'Aumeries
Co-Programmation & Développement : Marc-Olivier Méhu
Soutien technique & logistique : Manuel Goepfert

Contact : metmap@orbifly.com




SOURCES & CREDITS :

   NOAA